This is the latest recevied weather packets stored in our database for station/object I8ZSE-10. If no packets are shown the sender has not sent any weather packets the latest 10 day(s).
| Time | Temp. | Humidity | Pressure | Rain* | Wind** | Luminosity | Snow |
|---|---|---|---|---|---|---|---|
| 1788268230 | 31.67° C | 38% | - | 0 mm | - | - | - |
| 1788267630 | 31.11° C | 39% | - | 0 mm | - | - | - |
| 1788267030 | 30.56° C | 41% | - | 0 mm | - | - | - |
| 1788266430 | 31.67° C | 38% | - | 0 mm | - | - | - |
| 1788265830 | 30.56° C | 40% | - | 0 mm | - | - | - |
| 1788265230 | 30.56° C | 40% | - | 0 mm | - | - | - |
| 1788264630 | 31.11° C | 39% | - | 0 mm | - | - | - |
| 1788264030 | 30° C | 41% | - | 0 mm | - | - | - |
| 1788263430 | 29.44° C | 42% | - | 0 mm | - | - | - |
| 1788262830 | 30.56° C | 41% | - | 0 mm | - | - | - |
| 1788262230 | 31.11° C | 37% | - | 0 mm | - | - | - |
| 1788261631 | 31.11° C | 38% | - | 0 mm | - | - | - |
| 1788261030 | 30.56° C | 39% | - | 0 mm | - | - | - |
| 1788260430 | 30.56° C | 40% | - | 0 mm | - | - | - |
| 1788259830 | 29.44° C | 41% | - | 0 mm | - | - | - |
| 1788259230 | 29.44° C | 40% | - | 0 mm | - | - | - |
| 1788258639 | 30.56° C | 40% | - | 0 mm | - | - | - |
| 1788258030 | 30.56° C | 38% | - | 0 mm | - | - | - |
| 1788257430 | 30.56° C | 40% | - | 0 mm | - | - | - |
| 1788256830 | 29.44° C | 41% | - | 0 mm | - | - | - |
| 1788256230 | 29.44° C | 43% | - | 0 mm | - | - | - |
| 1788255630 | 28.33° C | 45% | - | 0 mm | - | - | - |
| 1788255030 | 28.33° C | 47% | - | 0 mm | - | - | - |
| 1788254430 | 28.33° C | 46% | - | 0 mm | - | - | - |
| 1788253830 | 28.33° C | 46% | - | 0 mm | - | - | - |
* Rain latest hour (hover to see other rain measurements)
** Current wind speed in m/s (hover to see current wind gust speed)